Time;durP1;ratioP1;P1;durP2;ratioP2;P2;SDS_P1;SDS_P2;PMS_P1;PMS_P2;Temp;Humidity;BMP_temperature;BMP_pressure;BME280_temperature;BME280_humidity;BME280_pressure;Samples;Min_cycle;Max_cycle;Signal;HPM_P1;HPM_P2
2023/01/31 00:01:24;;;;;;;13.77;2.67;;;4.20;89.40;;;;;;5109130;28;20487;-64
2023/01/31 00:03:54;;;;;;;12.23;2.63;;;4.20;89.40;;;;;;5087979;27;20224;-63
2023/01/31 00:06:23;;;;;;;12.93;2.30;;;4.10;89.90;;;;;;5101785;28;20024;-64
2023/01/31 00:08:50;;;;;;;7.25;2.20;;;4.10;89.80;;;;;;5087860;28;20495;-63
2023/01/31 00:11:18;;;;;;;12.02;2.60;;;4.20;90.10;;;;;;5108978;28;20045;-63
2023/01/31 00:13:44;;;;;;;9.77;2.22;;;4.20;89.90;;;;;;5087753;28;20484;-63
2023/01/31 00:16:11;;;;;;;15.85;2.53;;;4.10;89.50;;;;;;5108818;28;20032;-64
2023/01/31 00:18:37;;;;;;;18.02;2.78;;;4.10;89.80;;;;;;5087329;28;20028;-63
2023/01/31 00:21:18;;;;;;;9.18;2.38;;;4.10;90.00;;;;;;5108856;28;20020;-62
2023/01/31 00:23:45;;;;;;;12.48;2.58;;;4.10;90.00;;;;;;5085354;28;20062;-64
2023/01/31 00:26:20;;;;;;;12.80;2.97;;;4.00;90.20;;;;;;5108877;28;20020;-63
2023/01/31 00:28:47;;;;;;;15.50;2.63;;;4.00;90.00;;;;;;5085806;28;20484;-64
2023/01/31 00:31:14;;;;;;;19.73;3.17;;;4.00;90.40;;;;;;5102568;28;20072;-63
2023/01/31 00:33:42;;;;;;;13.15;1.95;;;3.90;90.50;;;;;;5105075;28;20036;-65
2023/01/31 00:36:13;;;;;;;8.27;1.95;;;3.80;90.80;;;;;;5089088;28;20043;-64
2023/01/31 00:38:41;;;;;;;7.80;2.15;;;3.70;91.30;;;;;;5084256;28;20028;-64
2023/01/31 00:41:07;;;;;;;18.52;2.55;;;3.70;92.00;;;;;;5109028;28;20024;-64
2023/01/31 00:43:32;;;;;;;12.00;2.40;;;3.60;92.20;;;;;;5087478;28;20038;-64
2023/01/31 00:45:58;;;;;;;8.27;1.90;;;3.60;92.80;;;;;;5108163;28;20114;-64
2023/01/31 00:48:24;;;;;;;11.85;2.58;;;3.50;93.20;;;;;;5087404;28;20028;-64
2023/01/31 00:50:50;;;;;;;14.25;2.33;;;3.50;93.50;;;;;;5108155;28;20091;-64
2023/01/31 00:53:17;;;;;;;12.95;2.88;;;3.50;94.20;;;;;;5087295;28;20056;-63
2023/01/31 00:55:43;;;;;;;12.93;2.60;;;3.50;94.70;;;;;;5108385;28;20055;-63
2023/01/31 00:58:08;;;;;;;11.70;2.30;;;3.40;95.00;;;;;;5087135;28;20056;-63
2023/01/31 01:00:34;;;;;;;12.57;3.20;;;3.40;95.00;;;;;;5108261;28;20031;-63
2023/01/31 01:02:59;;;;;;;11.93;2.67;;;3.40;95.40;;;;;;5087104;28;20047;-64
2023/01/31 01:05:25;;;;;;;17.25;2.70;;;3.40;96.40;;;;;;5095322;28;20372;-64
2023/01/31 01:07:50;;;;;;;11.02;2.42;;;3.30;96.90;;;;;;5106301;28;20044;-64
2023/01/31 01:10:16;;;;;;;9.23;1.88;;;3.30;97.10;;;;;;5088761;28;20127;-63
2023/01/31 01:12:41;;;;;;;18.83;3.60;;;3.40;96.80;;;;;;5105952;28;20036;-65
2023/01/31 01:15:07;;;;;;;13.07;3.22;;;3.40;96.50;;;;;;5088813;28;20024;-63
2023/01/31 01:17:33;;;;;;;10.93;2.30;;;3.40;96.00;;;;;;5106092;28;20408;-63
2023/01/31 01:20:02;;;;;;;16.38;3.10;;;3.50;95.60;;;;;;5088501;28;20454;-64
2023/01/31 01:22:29;;;;;;;11.25;2.00;;;3.50;95.20;;;;;;5106754;28;20028;-64
2023/01/31 01:24:54;;;;;;;27.02;3.67;;;3.50;95.00;;;;;;5108717;28;20383;-64
2023/01/31 01:27:20;;;;;;;13.25;3.08;;;3.50;95.10;;;;;;5093278;28;20112;-64
2023/01/31 01:29:45;;;;;;;10.70;2.38;;;3.40;95.00;;;;;;5108612;28;20472;-64
2023/01/31 01:32:11;;;;;;;15.65;3.55;;;3.40;94.90;;;;;;5091965;28;20431;-64
2023/01/31 01:34:36;;;;;;;13.05;2.67;;;3.40;95.30;;;;;;5107137;28;20042;-64
2023/01/31 01:37:10;;;;;;;8.05;2.55;;;3.30;95.30;;;;;;5090725;28;20168;-64
2023/01/31 01:39:37;;;;;;;15.23;2.78;;;3.40;95.70;;;;;;5108437;28;20032;-64
2023/01/31 01:42:02;;;;;;;14.38;2.55;;;3.40;95.70;;;;;;5090735;28;20016;-65
2023/01/31 01:44:44;;;;;;;12.70;2.42;;;3.40;95.60;;;;;;5108548;28;20383;-64
2023/01/31 01:47:31;;;;;;;12.23;2.72;;;3.40;95.40;;;;;;5091713;28;20181;-65
2023/01/31 01:50:28;;;;;;;10.45;2.10;;;3.40;95.20;;;;;;5108487;28;20024;-64
2023/01/31 01:52:58;;;;;;;11.30;2.40;;;3.40;95.30;;;;;;5088610;28;20246;-64
2023/01/31 01:55:29;;;;;;;12.45;2.25;;;3.40;95.50;;;;;;5067948;28;20229;-64
2023/01/31 01:58:10;;;;;;;10.25;1.90;;;3.40;95.60;;;;;;5096213;28;20399;-64
2023/01/31 02:00:36;;;;;;;14.07;2.80;;;3.40;95.70;;;;;;5067803;28;20506;-64
2023/01/31 02:03:06;;;;;;;15.98;2.95;;;3.40;96.00;;;;;;5093254;28;20027;-64
2023/01/31 02:05:45;;;;;;;11.82;2.17;;;3.40;95.80;;;;;;5097859;28;20081;-64
2023/01/31 02:08:14;;;;;;;12.00;3.45;;;3.50;95.80;;;;;;5083610;28;20020;-63
2023/01/31 02:10:59;;;;;;;11.52;2.05;;;3.50;95.60;;;;;;5111724;28;20024;-64
2023/01/31 02:13:27;;;;;;;12.20;2.57;;;3.60;95.50;;;;;;5085427;28;20452;-64
2023/01/31 02:15:52;;;;;;;13.70;2.28;;;3.60;95.40;;;;;;5111609;28;20032;-64
2023/01/31 02:18:20;;;;;;;9.88;1.50;;;3.60;95.30;;;;;;5089894;28;20430;-64
2023/01/31 02:21:18;;;;;;;9.02;2.28;;;3.70;95.30;;;;;;5111783;28;20039;-64
2023/01/31 02:24:08;;;;;;;10.77;1.95;;;3.70;94.80;;;;;;5087921;28;20036;-64
2023/01/31 02:26:59;;;;;;;9.27;1.67;;;3.70;94.60;;;;;;5069699;28;20040;-62
2023/01/31 02:29:51;;;;;;;9.65;1.77;;;3.70;94.20;;;;;;5111839;28;20088;-64
2023/01/31 02:32:41;;;;;;;9.38;1.88;;;3.60;94.30;;;;;;5081169;28;20097;-64
2023/01/31 02:35:16;;;;;;;8.23;1.70;;;3.50;94.60;;;;;;5091693;28;20078;-63
2023/01/31 02:38:06;;;;;;;10.43;2.47;;;3.50;95.00;;;;;;5087970;28;20032;-64
2023/01/31 02:40:56;;;;;;;10.13;2.10;;;3.40;96.00;;;;;;5091866;28;20028;-65
2023/01/31 02:46:54;;;;;;;12.82;1.85;;;3.30;97.30;;;;;;5070569;28;20294;-63
2023/01/31 02:49:34;;;;;;;13.07;1.90;;;3.20;97.90;;;;;;5111213;28;20081;-65
2023/01/31 02:52:17;;;;;;;8.85;2.28;;;3.10;98.40;;;;;;5076394;28;20024;-64
2023/01/31 03:01:19;;;;;;;13.70;1.90;;;3.10;99.90;;;;;;5071050;28;20035;-66
2023/01/31 03:03:45;;;;;;;6.65;1.75;;;3.20;99.80;;;;;;5087024;28;20024;-64
2023/01/31 03:06:11;;;;;;;12.07;2.75;;;3.20;99.70;;;;;;5106360;28;20403;-64
2023/01/31 03:08:43;;;;;;;18.20;3.00;;;3.30;99.70;;;;;;5089237;28;20032;-64
2023/01/31 03:11:09;;;;;;;15.88;2.20;;;3.30;99.10;;;;;;5110716;28;20056;-64
2023/01/31 03:13:53;;;;;;;13.52;3.20;;;3.40;98.50;;;;;;5089256;28;20115;-64
2023/01/31 03:19:51;;;;;;;11.63;2.50;;;3.40;97.90;;;;;;5070033;28;20044;-64
2023/01/31 03:22:23;;;;;;;8.52;2.03;;;3.40;97.90;;;;;;5048503;28;20481;-63
2023/01/31 03:24:50;;;;;;;15.77;1.77;;;3.40;97.70;;;;;;5070194;28;20090;-64
2023/01/31 03:27:16;;;;;;;12.00;1.83;;;3.40;97.70;;;;;;5107579;28;20058;-64
2023/01/31 03:29:42;;;;;;;9.30;2.05;;;3.40;98.00;;;;;;5110736;28;20103;-64
2023/01/31 03:32:24;;;;;;;10.52;2.20;;;3.40;98.00;;;;;;5093472;28;20047;-64
2023/01/31 03:34:50;;;;;;;17.33;2.50;;;3.40;98.20;;;;;;5110592;28;20082;-64
2023/01/31 03:37:39;;;;;;;13.85;2.50;;;3.40;98.50;;;;;;5094472;28;20134;-64
2023/01/31 03:40:18;;;;;;;17.40;2.53;;;3.40;98.30;;;;;;5110427;28;20060;-63
2023/01/31 03:43:13;;;;;;;12.40;3.05;;;3.40;98.60;;;;;;5088040;28;20383;-64
2023/01/31 03:46:05;;;;;;;14.23;2.17;;;3.30;99.10;;;;;;5069849;28;20511;-64
2023/01/31 03:48:36;;;;;;;13.20;3.08;;;3.20;99.50;;;;;;5083733;28;20044;-64
2023/01/31 03:51:06;;;;;;;7.82;1.85;;;3.20;99.90;;;;;;5069705;28;20027;-64
2023/01/31 03:53:40;;;;;;;9.73;2.25;;;3.20;99.90;;;;;;5084531;28;20032;-64
2023/01/31 03:56:14;;;;;;;8.48;1.52;;;3.20;99.90;;;;;;5069569;28;20488;-65
2023/01/31 03:58:46;;;;;;;9.68;1.98;;;3.20;99.90;;;;;;5089547;28;20172;-64
2023/01/31 04:01:13;;;;;;;10.27;1.85;;;3.20;99.90;;;;;;5069570;28;20025;-65
2023/01/31 04:03:47;;;;;;;10.57;2.20;;;3.20;99.90;;;;;;5089202;28;20339;-63
2023/01/31 04:06:13;;;;;;;17.27;2.42;;;3.30;99.90;;;;;;5061956;28;20101;-59
2023/01/31 04:08:39;;;;;;;9.88;2.67;;;3.30;99.90;;;;;;5088824;28;20499;-60
2023/01/31 04:11:09;;;;;;;11.07;1.83;;;3.30;99.90;;;;;;5109164;28;20517;-57
2023/01/31 04:13:34;;;;;;;10.02;1.90;;;3.30;99.90;;;;;;5087808;28;20032;-58
2023/01/31 04:16:00;;;;;;;10.93;1.50;;;3.30;99.90;;;;;;5108788;28;20514;-60
2023/01/31 04:18:26;;;;;;;8.52;2.33;;;3.30;99.90;;;;;;5087815;28;20507;-61
2023/01/31 04:20:51;;;;;;;12.02;2.33;;;3.40;99.90;;;;;;5108774;28;20111;-61
2023/01/31 04:23:17;;;;;;;13.60;2.00;;;3.30;99.90;;;;;;5087686;28;20036;-61
2023/01/31 04:25:43;;;;;;;16.80;2.28;;;3.30;99.90;;;;;;5108556;28;20617;-62
2023/01/31 04:28:09;;;;;;;6.55;2.03;;;3.20;99.90;;;;;;5087794;28;20541;-62
2023/01/31 04:30:34;;;;;;;12.45;1.83;;;3.10;99.90;;;;;;5107820;28;20036;-62
2023/01/31 04:33:01;;;;;;;13.23;1.92;;;3.00;99.90;;;;;;5099232;28;20504;-61
2023/01/31 04:35:26;;;;;;;10.25;1.80;;;2.90;99.90;;;;;;5089351;28;20024;-61
2023/01/31 04:37:52;;;;;;;11.27;2.45;;;2.80;99.90;;;;;;5106554;28;20040;-62
2023/01/31 04:40:17;;;;;;;14.30;2.30;;;2.70;99.90;;;;;;5089183;28;20145;-62
2023/01/31 04:42:43;;;;;;;12.82;1.65;;;2.60;99.90;;;;;;5106642;28;20074;-61
2023/01/31 04:45:09;;;;;;;8.30;1.80;;;2.50;99.90;;;;;;5089279;28;20530;-61
2023/01/31 04:47:34;;;;;;;11.10;1.73;;;2.50;99.90;;;;;;5106379;28;20530;-62
2023/01/31 04:50:00;;;;;;;9.70;1.50;;;2.30;99.90;;;;;;5089096;28;20032;-61
2023/01/31 04:52:25;;;;;;;11.95;1.75;;;2.30;99.90;;;;;;5106406;28;20399;-61
2023/01/31 04:54:51;;;;;;;8.65;1.60;;;2.20;99.90;;;;;;5108956;28;20092;-61
2023/01/31 04:57:16;;;;;;;11.38;2.63;;;2.20;99.90;;;;;;5093206;28;20070;-61
2023/01/31 04:59:42;;;;;;;12.45;2.63;;;2.10;99.90;;;;;;5108790;28;20050;-61
2023/01/31 05:02:07;;;;;;;12.32;3.13;;;2.10;99.90;;;;;;5092036;28;20035;-61
2023/01/31 05:04:33;;;;;;;6.95;1.58;;;2.00;99.90;;;;;;5102987;28;20694;-61
2023/01/31 05:06:58;;;;;;;8.02;1.40;;;2.00;99.90;;;;;;5090042;28;20019;-61
2023/01/31 05:09:24;;;;;;;9.95;1.35;;;2.00;99.90;;;;;;5108702;28;20102;-61
2023/01/31 05:11:50;;;;;;;8.68;1.70;;;2.00;99.90;;;;;;5089399;28;20122;-61
2023/01/31 05:14:17;;;;;;;11.77;1.73;;;2.00;99.90;;;;;;5108621;28;20150;-61
2023/01/31 05:16:46;;;;;;;14.93;1.98;;;2.00;99.90;;;;;;5088096;28;20553;-61
2023/01/31 05:19:14;;;;;;;9.95;1.45;;;1.90;99.90;;;;;;5108699;28;20039;-61
2023/01/31 05:21:58;;;;;;;6.75;1.45;;;2.00;99.90;;;;;;5087489;28;20043;-61
2023/01/31 05:24:26;;;;;;;11.40;1.90;;;2.00;99.90;;;;;;5108604;28;20034;-61
2023/01/31 05:26:57;;;;;;;7.05;1.30;;;2.00;99.90;;;;;;5089602;28;20035;-61
2023/01/31 05:29:23;;;;;;;12.63;2.15;;;2.00;99.90;;;;;;5108627;28;20035;-62
2023/01/31 05:31:56;;;;;;;15.25;2.90;;;2.00;99.90;;;;;;5097495;28;20096;-63
2023/01/31 05:34:24;;;;;;;14.40;1.83;;;2.00;99.90;;;;;;5108497;28;20379;-62
2023/01/31 05:36:50;;;;;;;10.80;2.15;;;2.00;99.90;;;;;;5088720;28;20066;-62
2023/01/31 05:39:16;;;;;;;16.52;2.97;;;2.00;99.90;;;;;;5110964;28;20016;-62
2023/01/31 05:41:42;;;;;;;12.18;2.25;;;2.10;99.90;;;;;;5091997;28;20024;-61
2023/01/31 05:44:07;;;;;;;10.77;1.70;;;2.00;99.90;;;;;;5112717;28;20023;-60
2023/01/31 05:46:33;;;;;;;9.32;1.60;;;2.10;99.90;;;;;;5091215;28;20280;-68
2023/01/31 05:48:58;;;;;;;14.88;1.98;;;2.10;99.90;;;;;;5092136;28;20028;-68
2023/01/31 05:51:24;;;;;;;9.65;1.95;;;2.10;99.90;;;;;;5111708;28;20039;-62
2023/01/31 05:53:50;;;;;;;12.00;1.90;;;2.10;99.90;;;;;;5090845;28;20020;-61
2023/01/31 05:56:16;;;;;;;10.68;1.40;;;2.10;99.90;;;;;;5111685;28;20019;-62
2023/01/31 05:58:41;;;;;;;10.95;2.47;;;2.10;99.90;;;;;;5090601;28;20399;-60
2023/01/31 06:01:07;;;;;;;11.02;2.25;;;2.20;99.90;;;;;;5111549;28;20487;-61
2023/01/31 06:03:33;;;;;;;9.50;1.50;;;2.20;99.90;;;;;;5090479;28;20112;-61
2023/01/31 06:05:58;;;;;;;12.80;1.33;;;2.20;99.90;;;;;;5107857;28;20504;-61
2023/01/31 06:08:24;;;;;;;9.55;1.98;;;2.20;99.90;;;;;;5090459;28;20232;-61
2023/01/31 06:10:49;;;;;;;18.65;2.90;;;2.20;99.90;;;;;;5110036;28;20119;-61
2023/01/31 06:13:15;;;;;;;9.38;1.50;;;2.30;99.90;;;;;;5090387;28;20252;-61
2023/01/31 06:15:44;;;;;;;9.80;1.73;;;2.30;99.90;;;;;;5111403;28;20133;-61
2023/01/31 06:18:10;;;;;;;11.32;1.65;;;2.40;99.90;;;;;;5090202;28;20385;-62
2023/01/31 06:20:35;;;;;;;8.13;1.77;;;2.40;99.90;;;;;;5111192;28;20034;-62
2023/01/31 06:23:01;;;;;;;8.57;1.50;;;2.50;99.90;;;;;;5090040;28;20029;-61
2023/01/31 06:25:26;;;;;;;6.80;1.90;;;2.60;99.90;;;;;;5110935;28;20024;-61
2023/01/31 06:27:54;;;;;;;8.45;1.80;;;2.60;99.90;;;;;;5101201;28;20093;-61
2023/01/31 06:30:19;;;;;;;15.80;2.63;;;2.70;99.90;;;;;;5091301;28;20047;-61
2023/01/31 06:32:45;;;;;;;8.85;1.55;;;2.70;99.90;;;;;;5108836;28;20040;-61
2023/01/31 06:35:10;;;;;;;9.05;2.15;;;2.80;99.90;;;;;;5091771;28;20095;-61
2023/01/31 06:37:36;;;;;;;15.35;2.30;;;2.80;99.90;;;;;;5108785;28;20394;-61
2023/01/31 06:40:01;;;;;;;10.80;2.20;;;2.90;99.90;;;;;;5091436;28;20037;-61
2023/01/31 06:42:27;;;;;;;11.23;1.75;;;3.00;99.90;;;;;;5108779;28;20115;-61
2023/01/31 06:44:52;;;;;;;11.23;2.30;;;3.10;99.90;;;;;;5111503;28;20020;-61
2023/01/31 06:47:18;;;;;;;13.68;1.88;;;3.10;99.90;;;;;;5095604;28;20031;-61
2023/01/31 06:49:44;;;;;;;15.80;2.17;;;3.20;99.90;;;;;;5111060;28;20054;-61
2023/01/31 06:52:09;;;;;;;12.15;2.00;;;3.20;99.90;;;;;;5094799;28;20549;-61
2023/01/31 06:54:35;;;;;;;15.48;2.58;;;3.30;99.90;;;;;;5111331;28;20019;-61
2023/01/31 06:57:00;;;;;;;9.10;2.22;;;3.30;99.90;;;;;;5093372;28;20092;-61
2023/01/31 06:59:26;;;;;;;11.25;2.40;;;3.40;99.90;;;;;;5111319;28;20499;-61
2023/01/31 07:01:51;;;;;;;13.20;2.38;;;3.40;99.90;;;;;;5091890;28;20512;-61
2023/01/31 07:04:17;;;;;;;13.88;2.00;;;3.50;99.90;;;;;;5111016;28;20035;-61
2023/01/31 07:06:42;;;;;;;9.18;2.58;;;3.50;99.90;;;;;;5085248;28;20112;-61
2023/01/31 07:09:08;;;;;;;12.48;1.80;;;3.60;99.90;;;;;;5090617;28;20042;-61
2023/01/31 07:11:33;;;;;;;11.60;2.50;;;3.60;99.90;;;;;;5108871;28;20023;-61
2023/01/31 07:13:59;;;;;;;6.90;2.20;;;3.70;99.90;;;;;;5070493;28;20064;-61
2023/01/31 07:16:24;;;;;;;13.85;2.10;;;3.70;99.90;;;;;;5109660;28;20402;-61
2023/01/31 07:18:54;;;;;;;6.18;2.13;;;3.70;99.90;;;;;;5089168;28;20027;-61
2023/01/31 07:21:20;;;;;;;16.30;2.25;;;3.70;99.90;;;;;;5110189;28;20031;-61
2023/01/31 07:23:45;;;;;;;9.00;1.80;;;3.80;99.90;;;;;;5089010;28;20032;-61
2023/01/31 07:26:11;;;;;;;12.63;2.40;;;3.80;99.90;;;;;;5109911;28;20036;-61
2023/01/31 07:28:36;;;;;;;14.77;2.00;;;3.90;99.90;;;;;;5089228;28;20058;-61
2023/01/31 07:31:09;;;;;;;9.77;1.85;;;3.90;99.90;;;;;;5105129;28;20036;-61
2023/01/31 07:33:35;;;;;;;10.27;1.95;;;3.90;99.90;;;;;;5088438;28;20046;-61
2023/01/31 07:36:03;;;;;;;15.48;3.28;;;4.00;99.90;;;;;;5109749;28;20028;-61
2023/01/31 07:38:28;;;;;;;6.85;1.63;;;4.00;99.90;;;;;;5088372;28;20107;-61
2023/01/31 07:40:58;;;;;;;14.70;2.55;;;4.10;99.90;;;;;;5109746;28;20115;-61
2023/01/31 07:43:24;;;;;;;7.60;1.67;;;4.10;99.90;;;;;;5088102;28;20749;-61
2023/01/31 07:45:49;;;;;;;5.53;1.58;;;4.10;99.90;;;;;;5109801;28;20032;-62
2023/01/31 07:48:15;;;;;;;11.25;1.83;;;4.10;99.90;;;;;;5088594;28;20031;-61
2023/01/31 07:50:40;;;;;;;11.65;1.60;;;4.20;99.90;;;;;;5109503;28;20072;-61
2023/01/31 07:53:06;;;;;;;11.63;2.38;;;4.20;99.90;;;;;;5088576;28;20028;-61
2023/01/31 07:55:31;;;;;;;9.85;1.77;;;4.30;99.90;;;;;;5109615;27;20084;-61
2023/01/31 07:57:57;;;;;;;7.68;2.22;;;4.30;99.90;;;;;;5088390;28;20036;-60
2023/01/31 08:03:32;;;;;;;7.65;1.55;;;4.40;99.90;;;;;;5080712;28;20042;-61
2023/01/31 08:06:05;;;;;;;8.07;2.05;;;4.40;99.90;;;;;;5096315;28;20022;-61
2023/01/31 08:08:30;;;;;;;4.70;1.55;;;4.50;99.90;;;;;;5087598;28;20035;-61
2023/01/31 08:10:56;;;;;;;6.00;1.50;;;4.50;99.90;;;;;;5109135;28;20027;-61
2023/01/31 08:13:22;;;;;;;7.43;1.88;;;4.50;99.90;;;;;;5088288;28;20020;-61
2023/01/31 08:15:51;;;;;;;13.55;2.65;;;4.60;99.90;;;;;;5109165;28;20487;-67
2023/01/31 08:18:16;;;;;;;8.50;1.90;;;4.60;99.90;;;;;;5087562;28;20492;-67
2023/01/31 08:20:42;;;;;;;14.85;2.40;;;4.60;99.90;;;;;;5108916;28;20039;-67
2023/01/31 08:23:07;;;;;;;9.15;2.60;;;4.60;99.90;;;;;;5088051;28;20028;-67
2023/01/31 08:25:33;;;;;;;13.10;2.42;;;4.70;99.90;;;;;;5108919;28;20028;-67
2023/01/31 08:27:59;;;;;;;9.68;2.13;;;4.70;99.90;;;;;;5087829;28;20597;-67
2023/01/31 08:30:25;;;;;;;9.73;2.42;;;4.70;99.90;;;;;;5108841;28;20698;-67
2023/01/31 08:32:50;;;;;;;8.32;2.22;;;4.70;99.90;;;;;;5098141;28;20040;-67
2023/01/31 08:35:16;;;;;;;11.35;2.45;;;4.80;99.90;;;;;;5089697;28;20516;-67
2023/01/31 08:37:41;;;;;;;8.27;2.20;;;4.70;99.90;;;;;;5097081;28;20036;-67
2023/01/31 08:40:08;;;;;;;9.70;2.20;;;4.70;99.90;;;;;;5108483;28;20039;-67
2023/01/31 08:42:33;;;;;;;10.45;2.85;;;4.80;99.90;;;;;;5087501;28;20108;-67
2023/01/31 08:44:59;;;;;;;13.98;3.25;;;4.70;99.90;;;;;;5108614;28;20103;-67
2023/01/31 08:47:24;;;;;;;11.85;2.00;;;4.70;99.90;;;;;;5087435;28;20055;-67
2023/01/31 08:49:50;;;;;;;8.52;2.15;;;4.70;99.90;;;;;;5088904;28;20399;-67
2023/01/31 08:52:15;;;;;;;11.95;2.58;;;4.70;99.90;;;;;;5106312;28;20089;-66
2023/01/31 08:54:41;;;;;;;11.75;2.67;;;4.70;99.90;;;;;;5109231;28;20032;-66
2023/01/31 08:57:06;;;;;;;8.55;2.40;;;4.80;99.90;;;;;;5087354;28;20119;-66
2023/01/31 08:59:32;;;;;;;14.70;2.78;;;4.80;99.90;;;;;;5088678;28;20032;-67
2023/01/31 09:01:57;;;;;;;7.13;1.95;;;4.70;99.90;;;;;;5106117;28;20043;-67
2023/01/31 09:04:22;;;;;;;8.32;1.77;;;4.70;99.90;;;;;;5108184;28;20454;-63
2023/01/31 09:06:48;;;;;;;8.63;2.00;;;4.70;99.90;;;;;;5086712;28;20111;-67
2023/01/31 09:09:14;;;;;;;7.85;2.33;;;4.70;99.90;;;;;;5088643;28;20032;-67
2023/01/31 09:11:39;;;;;;;12.93;3.00;;;4.70;99.90;;;;;;5105296;28;20054;-66
2023/01/31 09:14:05;;;;;;;4.70;1.88;;;4.70;99.90;;;;;;5088418;28;20379;-67
2023/01/31 09:16:30;;;;;;;8.75;2.15;;;4.70;99.90;;;;;;5108185;28;20027;-67
2023/01/31 09:18:56;;;;;;;10.43;2.45;;;4.70;99.90;;;;;;5086662;28;20036;-67
2023/01/31 09:21:23;;;;;;;9.80;2.25;;;4.70;99.90;;;;;;5107985;28;20110;-67
2023/01/31 09:23:55;;;;;;;9.35;1.88;;;4.70;99.90;;;;;;5086940;28;20032;-66
2023/01/31 09:26:20;;;;;;;9.20;1.75;;;4.80;99.90;;;;;;5088330;28;20080;-67
2023/01/31 09:28:46;;;;;;;9.07;2.42;;;4.80;99.90;;;;;;5087679;28;20742;-67
2023/01/31 09:31:13;;;;;;;4.88;1.80;;;4.80;99.90;;;;;;5101927;28;20051;-67
2023/01/31 09:33:39;;;;;;;10.40;2.42;;;4.90;99.90;;;;;;5086427;28;20146;-67
2023/01/31 09:36:08;;;;;;;6.70;2.33;;;4.90;99.90;;;;;;5107952;28;20032;-67
2023/01/31 09:38:34;;;;;;;14.48;2.42;;;5.00;99.90;;;;;;5086400;28;20040;-67
2023/01/31 09:41:04;;;;;;;10.05;2.47;;;5.00;99.90;;;;;;5107873;28;20032;-66
2023/01/31 09:43:40;;;;;;;8.55;2.78;;;5.00;99.90;;;;;;5086384;28;20025;-67
2023/01/31 09:46:12;;;;;;;6.65;2.50;;;5.10;99.90;;;;;;5067851;28;20046;-67
2023/01/31 09:48:41;;;;;;;7.28;2.03;;;5.10;99.90;;;;;;5083629;28;20016;-66
2023/01/31 09:51:10;;;;;;;15.65;2.20;;;5.10;99.90;;;;;;5108012;28;20028;-67
2023/01/31 09:53:37;;;;;;;8.57;1.67;;;5.10;99.90;;;;;;5086312;28;20028;-66
2023/01/31 09:56:08;;;;;;;7.53;1.80;;;5.10;99.90;;;;;;5107815;28;20114;-67
2023/01/31 09:59:11;;;;;;;9.25;2.28;;;5.20;99.90;;;;;;5086625;28;20067;-67
2023/01/31 10:01:39;;;;;;;9.98;2.20;;;5.20;99.90;;;;;;5105080;28;20062;-67
2023/01/31 10:04:15;;;;;;;12.90;2.25;;;5.20;99.90;;;;;;5088216;28;20055;-66
2023/01/31 10:06:47;;;;;;;10.73;1.90;;;5.30;99.90;;;;;;5063176;28;20032;-67
2023/01/31 10:09:32;;;;;;;10.80;1.85;;;5.20;99.90;;;;;;5087996;28;20024;-67
2023/01/31 10:12:03;;;;;;;12.18;2.30;;;5.30;99.90;;;;;;5069252;28;20017;-67
2023/01/31 10:14:45;;;;;;;9.35;2.17;;;5.30;99.90;;;;;;5087879;28;20031;-66
2023/01/31 10:17:35;;;;;;;8.35;1.95;;;5.30;99.90;;;;;;5071064;28;20077;-67
2023/01/31 10:20:27;;;;;;;10.90;2.63;;;5.40;99.90;;;;;;5087918;28;20024;-66
2023/01/31 10:23:05;;;;;;;12.85;2.65;;;5.50;99.90;;;;;;5073788;28;20595;-66
2023/01/31 10:25:50;;;;;;;12.95;2.67;;;5.50;99.90;;;;;;5090521;28;20039;-66
2023/01/31 10:28:24;;;;;;;13.70;2.67;;;5.50;99.90;;;;;;5083571;28;20028;-67
2023/01/31 10:31:29;;;;;;;8.20;2.75;;;5.60;99.90;;;;;;5076083;28;20052;-67
2023/01/31 10:34:16;;;;;;;13.63;2.72;;;5.60;99.90;;;;;;5089870;28;20385;-67
2023/01/31 10:37:00;;;;;;;6.15;2.03;;;5.60;99.90;;;;;;5109241;28;20042;-66
2023/01/31 10:39:31;;;;;;;8.85;2.10;;;5.60;99.90;;;;;;5111801;27;20023;-66
2023/01/31 10:42:15;;;;;;;8.98;2.85;;;5.60;99.90;;;;;;5072567;28;20024;-67
2023/01/31 10:44:57;;;;;;;9.48;2.30;;;5.70;99.90;;;;;;5091338;28;20032;-66
2023/01/31 10:47:46;;;;;;;12.25;2.80;;;5.70;99.90;;;;;;5088973;28;20385;-66
2023/01/31 10:50:17;;;;;;;13.65;2.63;;;5.70;99.90;;;;;;5070801;28;20041;-66
2023/01/31 10:52:56;;;;;;;13.90;3.00;;;5.70;99.90;;;;;;5099268;28;20028;-66
2023/01/31 10:55:51;;;;;;;19.13;3.00;;;5.70;99.90;;;;;;5070964;28;20039;-66
2023/01/31 10:58:21;;;;;;;10.23;2.85;;;5.70;99.90;;;;;;5083018;28;20031;-66
2023/01/31 11:00:47;;;;;;;10.57;2.30;;;5.70;99.90;;;;;;5110956;28;20024;-66
2023/01/31 11:03:14;;;;;;;12.70;3.17;;;5.70;99.90;;;;;;5088227;28;20024;-66
2023/01/31 11:05:52;;;;;;;14.25;2.78;;;5.70;99.90;;;;;;5091820;28;20032;-66
2023/01/31 11:08:29;;;;;;;11.30;3.22;;;5.70;99.90;;;;;;5094328;28;20039;-66
2023/01/31 11:10:56;;;;;;;14.38;3.72;;;5.70;99.90;;;;;;5070536;28;20033;-67
2023/01/31 11:13:22;;;;;;;10.65;2.35;;;5.70;99.90;;;;;;5093072;28;20422;-66
2023/01/31 11:15:51;;;;;;;11.90;2.25;;;5.70;99.90;;;;;;5110183;28;20027;-66
2023/01/31 11:18:26;;;;;;;10.95;2.72;;;5.70;99.90;;;;;;5088675;28;20100;-65
2023/01/31 11:20:52;;;;;;;11.23;2.92;;;5.70;99.90;;;;;;5070293;28;20077;-65
2023/01/31 11:23:23;;;;;;;10.48;2.42;;;5.70;99.90;;;;;;5093133;28;20028;-65
2023/01/31 11:25:51;;;;;;;10.27;2.38;;;5.70;99.90;;;;;;5070146;28;20067;-65
2023/01/31 11:28:38;;;;;;;9.73;2.30;;;5.80;99.90;;;;;;5093782;28;20024;-65
2023/01/31 11:31:06;;;;;;;15.18;3.47;;;5.80;99.90;;;;;;5078814;28;20036;-64
2023/01/31 11:33:54;;;;;;;9.40;2.50;;;5.80;99.90;;;;;;5092235;28;20475;-65
2023/01/31 11:36:22;;;;;;;11.98;2.53;;;5.80;99.90;;;;;;5068626;28;20101;-65
2023/01/31 11:38:49;;;;;;;13.77;3.03;;;5.80;99.90;;;;;;5088961;28;20053;-65
2023/01/31 11:41:33;;;;;;;9.80;2.28;;;5.80;99.90;;;;;;5109723;28;20123;-65
2023/01/31 11:44:17;;;;;;;11.38;3.03;;;5.80;99.90;;;;;;5069833;28;20112;-65
2023/01/31 11:46:51;;;;;;;12.38;2.85;;;5.70;99.90;;;;;;5106602;28;20028;-65
2023/01/31 11:49:31;;;;;;;13.63;2.30;;;5.80;99.90;;;;;;5089982;28;20534;-65
2023/01/31 11:52:00;;;;;;;5.72;2.58;;;5.80;99.90;;;;;;5073993;28;20016;-56
2023/01/31 11:54:32;;;;;;;7.18;2.38;;;5.80;99.90;;;;;;5110244;28;20034;-55
2023/01/31 11:57:00;;;;;;;14.52;2.78;;;5.80;99.90;;;;;;5087905;28;20095;-53
2023/01/31 11:59:29;;;;;;;14.15;3.60;;;5.90;99.90;;;;;;5089526;28;20025;-53
2023/01/31 12:01:56;;;;;;;12.73;3.28;;;5.80;99.90;;;;;;5104878;28;20028;-55
2023/01/31 12:04:41;;;;;;;9.57;2.60;;;5.90;99.90;;;;;;5089547;28;20081;-58
2023/01/31 12:07:31;;;;;;;15.77;3.75;;;5.90;99.90;;;;;;5102102;28;20028;-54
2023/01/31 12:09:56;;;;;;;13.18;3.70;;;5.90;99.90;;;;;;5089778;28;20047;-55
2023/01/31 12:12:33;;;;;;;10.43;3.03;;;5.90;99.90;;;;;;5100522;28;20044;-54
2023/01/31 12:15:01;;;;;;;9.35;2.78;;;5.90;99.90;;;;;;5089634;28;20085;-60
2023/01/31 12:17:39;;;;;;;14.02;2.95;;;5.90;99.90;;;;;;5100143;28;20081;-59
2023/01/31 12:20:23;;;;;;;13.60;3.15;;;5.90;99.90;;;;;;5068973;28;20521;-60
2023/01/31 12:22:49;;;;;;;15.00;3.60;;;5.90;99.90;;;;;;5077680;28;20020;-59
2023/01/31 12:25:33;;;;;;;13.25;2.70;;;5.90;99.90;;;;;;5108991;28;20062;-59
2023/01/31 12:28:17;;;;;;;7.30;2.47;;;6.00;99.90;;;;;;5087910;28;20111;-60
2023/01/31 12:31:02;;;;;;;16.42;2.92;;;6.00;99.90;;;;;;5071635;28;20040;-59
2023/01/31 12:33:34;;;;;;;7.53;2.50;;;6.00;99.90;;;;;;5091648;28;20036;-59
2023/01/31 12:36:18;;;;;;;14.65;3.28;;;5.90;99.90;;;;;;5068817;28;20052;-59
2023/01/31 12:39:01;;;;;;;8.80;2.78;;;5.90;99.90;;;;;;5085153;28;20043;-60
2023/01/31 12:41:40;;;;;;;9.00;3.05;;;5.90;99.90;;;;;;5068715;28;20029;-60
2023/01/31 12:44:37;;;;;;;9.35;3.17;;;5.90;99.90;;;;;;5068659;28;20036;-59
2023/01/31 12:47:25;;;;;;;;;;;5.80;99.90;;;;;;5070877;28;20423;-60
2023/01/31 12:49:59;;;;;;;9.88;2.42;;;5.80;99.90;;;;;;5088628;28;20315;-60
2023/01/31 12:52:49;;;;;;;14.13;2.53;;;5.80;99.90;;;;;;5074046;28;20036;-59
2023/01/31 12:55:22;;;;;;;14.90;2.75;;;5.70;99.90;;;;;;5068512;28;20036;-60
2023/01/31 12:58:15;;;;;;;6.45;2.40;;;5.60;99.90;;;;;;5077247;28;20063;-59
2023/01/31 13:00:48;;;;;;;17.10;2.63;;;5.60;99.90;;;;;;5068506;28;20599;-60
2023/01/31 13:03:58;;;;;;;12.25;3.90;;;5.50;99.90;;;;;;5080616;28;20496;-59
2023/01/31 13:06:45;;;;;;;12.82;2.95;;;5.50;99.90;;;;;;5002187;28;20117;-60
2023/01/31 13:09:29;;;;;;;8.10;3.08;;;5.50;99.90;;;;;;5006099;28;20029;-60
2023/01/31 13:12:15;;;;;;;9.93;3.15;;;5.40;99.90;;;;;;5055438;28;20032;-60
2023/01/31 13:15:03;;;;;;;10.85;3.35;;;5.50;99.90;;;;;;5088674;28;20378;-60
2023/01/31 13:17:31;;;;;;;14.95;3.00;;;5.50;99.90;;;;;;5081822;28;20047;-60
2023/01/31 13:20:01;;;;;;;13.95;3.85;;;5.50;99.90;;;;;;5108710;28;20027;-60
2023/01/31 13:22:37;;;;;;;15.10;3.22;;;5.50;99.90;;;;;;5093676;28;20031;-60
2023/01/31 13:25:24;;;;;;;10.50;3.92;;;5.40;99.90;;;;;;5068383;28;20036;-59
2023/01/31 13:28:04;;;;;;;9.57;3.03;;;5.30;99.90;;;;;;5087932;28;20039;-59